Time;durP1;ratioP1;P1;durP2;ratioP2;P2;SDS_P1;SDS_P2;PMS_P1;PMS_P2;Temp;Humidity;BMP_temperature;BMP_pressure;BME280_temperature;BME280_humidity;BME280_pressure;Samples;Min_cycle;Max_cycle;Signal;HPM_P1;HPM_P2
2022/03/03 00:01:18;;;;;;;28.35;16.90;;;8.00;99.90;;;;;;5073568;28;20182;-73
2022/03/03 00:03:44;;;;;;;29.58;16.85;;;8.00;99.90;;;;;;5073714;28;20408;-73
2022/03/03 00:06:10;;;;;;;20.23;11.32;;;7.90;99.90;;;;;;5073622;28;20045;-69
2022/03/03 00:08:35;;;;;;;17.73;8.60;;;7.90;99.90;;;;;;5071829;28;20052;-73
2022/03/03 00:11:01;;;;;;;21.90;8.32;;;7.90;99.90;;;;;;5071809;28;20064;-73
2022/03/03 00:13:27;;;;;;;15.43;8.65;;;7.80;99.90;;;;;;5071640;28;20139;-67
2022/03/03 00:15:53;;;;;;;13.95;8.50;;;7.80;99.90;;;;;;5073126;28;20044;-68
2022/03/03 00:18:19;;;;;;;15.80;7.95;;;7.90;99.90;;;;;;5073139;28;20044;-67
2022/03/03 00:20:44;;;;;;;19.35;8.82;;;8.00;99.90;;;;;;5073244;28;20049;-70
2022/03/03 00:23:10;;;;;;;18.25;8.75;;;8.10;99.90;;;;;;5072745;28;20455;-69
2022/03/03 00:25:36;;;;;;;17.05;8.07;;;8.00;99.90;;;;;;5072766;28;20053;-72
2022/03/03 00:28:05;;;;;;;17.25;8.15;;;8.00;99.90;;;;;;5072800;28;20893;-68
2022/03/03 00:30:31;;;;;;;14.88;8.15;;;8.00;99.90;;;;;;5072720;28;20494;-66
2022/03/03 00:32:56;;;;;;;17.25;8.23;;;8.00;99.90;;;;;;5071160;28;20051;-67
2022/03/03 00:35:22;;;;;;;18.35;8.18;;;8.10;99.90;;;;;;5072871;28;20070;-70
2022/03/03 00:37:48;;;;;;;17.85;8.32;;;8.10;99.90;;;;;;5072816;28;20036;-73
2022/03/03 00:40:14;;;;;;;14.93;7.25;;;8.00;99.90;;;;;;5071225;28;20442;-67
2022/03/03 00:42:40;;;;;;;18.90;8.65;;;8.20;99.90;;;;;;5072660;28;20032;-73
2022/03/03 00:45:06;;;;;;;19.08;8.68;;;8.20;99.90;;;;;;5072484;28;20049;-67
2022/03/03 00:47:32;;;;;;;16.92;8.45;;;8.10;99.90;;;;;;5072514;28;20123;-73
2022/03/03 00:49:58;;;;;;;19.50;9.48;;;8.10;99.90;;;;;;5072484;28;20143;-68
2022/03/03 00:52:24;;;;;;;17.60;8.65;;;8.00;99.90;;;;;;5072320;28;20048;-67
2022/03/03 00:54:50;;;;;;;15.85;8.23;;;8.00;99.90;;;;;;5072317;28;20044;-73
2022/03/03 00:57:16;;;;;;;23.10;11.55;;;7.90;99.90;;;;;;5072135;28;20418;-73
2022/03/03 00:59:42;;;;;;;25.67;16.27;;;7.90;99.90;;;;;;5072090;28;20496;-71
2022/03/03 01:02:08;;;;;;;23.55;15.65;;;7.70;99.90;;;;;;5072153;28;20119;-72
2022/03/03 01:04:33;;;;;;;31.58;16.88;;;7.50;99.90;;;;;;5069802;28;20036;-68
2022/03/03 01:06:59;;;;;;;27.13;14.43;;;7.30;99.90;;;;;;5071907;28;20508;-68
2022/03/03 01:09:25;;;;;;;29.58;14.27;;;7.20;99.90;;;;;;5071859;28;20040;-68
2022/03/03 01:11:51;;;;;;;21.58;12.10;;;7.20;99.90;;;;;;5071888;28;20492;-67
2022/03/03 01:14:21;;;;;;;25.77;11.45;;;7.20;99.90;;;;;;5071806;28;20513;-67
2022/03/03 01:16:48;;;;;;;17.67;11.73;;;7.30;99.90;;;;;;5068672;28;20056;-68
2022/03/03 01:19:14;;;;;;;23.90;11.48;;;7.40;99.90;;;;;;5072039;28;20094;-73
2022/03/03 01:21:39;;;;;;;21.85;10.65;;;7.40;99.90;;;;;;5071893;28;20154;-68
2022/03/03 01:24:05;;;;;;;19.35;11.05;;;7.50;99.90;;;;;;5071820;28;20055;-68
2022/03/03 01:26:31;;;;;;;19.27;10.80;;;7.50;99.90;;;;;;5071684;28;20045;-67
2022/03/03 01:28:57;;;;;;;17.38;9.80;;;7.60;99.90;;;;;;5071418;28;20514;-67
2022/03/03 01:31:23;;;;;;;16.05;9.63;;;7.60;99.90;;;;;;5071801;28;20415;-73
2022/03/03 01:33:48;;;;;;;16.67;10.23;;;7.70;99.90;;;;;;5071941;28;20032;-68
2022/03/03 01:36:14;;;;;;;16.73;10.15;;;7.60;99.90;;;;;;5071024;28;20047;-70
2022/03/03 01:38:40;;;;;;;20.08;9.80;;;7.50;99.90;;;;;;5071540;28;20134;-67
2022/03/03 01:41:07;;;;;;;20.33;10.07;;;7.60;99.90;;;;;;5072129;28;20501;-73
2022/03/03 01:43:34;;;;;;;16.90;9.27;;;7.60;99.90;;;;;;5071891;28;20052;-72
2022/03/03 01:46:00;;;;;;;16.42;10.70;;;7.50;99.90;;;;;;5072575;28;20114;-67
2022/03/03 01:48:25;;;;;;;19.73;9.80;;;7.40;99.90;;;;;;5071438;28;20036;-73
2022/03/03 01:50:52;;;;;;;22.83;10.40;;;7.40;99.90;;;;;;5072542;28;20476;-73
2022/03/03 01:53:18;;;;;;;16.83;10.23;;;7.50;99.90;;;;;;5072084;28;20453;-73
2022/03/03 01:55:45;;;;;;;17.45;10.13;;;7.50;99.90;;;;;;5072575;28;20441;-67
2022/03/03 01:58:11;;;;;;;17.70;10.23;;;7.50;99.90;;;;;;5071249;28;20051;-74
2022/03/03 02:00:37;;;;;;;17.00;9.45;;;7.50;99.90;;;;;;5072755;28;20376;-68
2022/03/03 02:03:02;;;;;;;18.58;9.20;;;7.60;99.90;;;;;;5072978;28;20044;-71
2022/03/03 02:05:30;;;;;;;15.85;9.07;;;7.70;99.90;;;;;;5072827;28;20143;-72
2022/03/03 02:07:57;;;;;;;21.23;10.93;;;7.70;99.90;;;;;;5072756;28;20044;-71
2022/03/03 02:10:23;;;;;;;17.35;10.13;;;7.70;99.90;;;;;;5072572;28;20040;-72
2022/03/03 02:12:49;;;;;;;20.17;11.25;;;7.80;99.90;;;;;;5072806;28;20136;-68
2022/03/03 02:15:18;;;;;;;24.40;11.32;;;7.80;99.90;;;;;;5072795;28;20113;-70
2022/03/03 02:17:44;;;;;;;27.35;15.20;;;7.80;99.90;;;;;;5072875;28;20048;-73
2022/03/03 02:20:27;;;;;;;21.58;10.98;;;7.70;99.90;;;;;;5072884;28;20460;-72
2022/03/03 02:22:55;;;;;;;18.30;11.32;;;7.70;99.90;;;;;;5071222;28;20059;-73
2022/03/03 02:25:21;;;;;;;18.60;11.02;;;7.80;99.90;;;;;;5072729;28;20039;-68
2022/03/03 02:27:47;;;;;;;22.38;10.90;;;7.80;99.90;;;;;;5072344;28;20036;-68
2022/03/03 02:30:16;;;;;;;25.02;10.05;;;7.80;99.90;;;;;;5071912;28;20111;-72
2022/03/03 02:32:42;;;;;;;21.83;10.65;;;7.90;99.90;;;;;;5072586;28;20481;-71
2022/03/03 02:35:08;;;;;;;16.92;9.68;;;7.90;99.90;;;;;;5072634;28;20024;-73
2022/03/03 02:37:36;;;;;;;20.33;8.93;;;8.00;99.90;;;;;;5072525;28;20054;-73
2022/03/03 02:40:05;;;;;;;23.92;9.15;;;8.00;99.90;;;;;;5071569;28;20044;-69
2022/03/03 02:42:31;;;;;;;15.60;9.07;;;8.00;99.90;;;;;;5072547;28;20075;-72
2022/03/03 02:44:57;;;;;;;20.23;10.70;;;7.90;99.90;;;;;;5072492;28;20496;-73
2022/03/03 02:47:23;;;;;;;18.85;9.90;;;8.00;99.90;;;;;;5072794;28;20483;-68
2022/03/03 02:49:48;;;;;;;19.42;9.57;;;8.00;99.90;;;;;;5072747;28;20119;-68
2022/03/03 02:52:14;;;;;;;22.63;11.35;;;8.00;99.90;;;;;;5072452;28;20130;-72
2022/03/03 02:54:40;;;;;;;21.65;10.52;;;8.00;99.90;;;;;;5072584;28;20452;-73
2022/03/03 02:59:51;;;;;;;21.85;10.50;;;7.90;99.90;;;;;;5072429;28;20035;-73
2022/03/03 03:02:17;;;;;;;19.58;10.48;;;7.90;99.90;;;;;;5072486;28;20109;-68
2022/03/03 03:04:43;;;;;;;17.25;9.50;;;7.90;99.90;;;;;;5075707;28;20028;-72
2022/03/03 03:07:09;;;;;;;21.02;10.18;;;8.00;99.90;;;;;;5072511;28;20078;-72
2022/03/03 03:09:35;;;;;;;16.80;10.00;;;8.00;99.90;;;;;;5059413;28;20025;-68
2022/03/03 03:12:01;;;;;;;17.67;10.02;;;8.10;99.90;;;;;;5055008;28;20079;-73
2022/03/03 03:14:27;;;;;;;16.60;8.85;;;8.00;99.90;;;;;;5055539;28;20108;-73
2022/03/03 03:16:53;;;;;;;15.93;8.90;;;7.90;99.90;;;;;;5055646;28;20040;-72
2022/03/03 03:19:19;;;;;;;21.90;9.48;;;7.90;99.90;;;;;;5055701;28;20037;-68
2022/03/03 03:21:44;;;;;;;16.40;8.77;;;7.90;99.90;;;;;;5055136;28;20045;-73
2022/03/03 03:24:10;;;;;;;20.00;8.93;;;7.90;99.90;;;;;;5053560;28;20143;-72
2022/03/03 03:26:36;;;;;;;18.05;9.48;;;8.00;99.90;;;;;;5054740;28;20033;-73
2022/03/03 03:29:02;;;;;;;15.10;8.70;;;8.10;99.90;;;;;;5054966;28;20461;-73
2022/03/03 03:31:28;;;;;;;13.45;8.55;;;8.10;99.90;;;;;;5055717;28;20080;-72
2022/03/03 03:33:53;;;;;;;18.83;10.43;;;8.10;99.90;;;;;;5055668;28;20557;-73
2022/03/03 03:36:20;;;;;;;21.08;11.23;;;8.10;99.90;;;;;;5055738;28;20388;-73
2022/03/03 03:38:45;;;;;;;23.70;10.35;;;8.10;99.90;;;;;;5055670;28;20504;-73
2022/03/03 03:41:12;;;;;;;17.60;8.95;;;8.10;99.90;;;;;;5055710;28;20119;-73
2022/03/03 03:43:38;;;;;;;18.20;9.68;;;8.10;99.90;;;;;;5055575;28;20561;-70
2022/03/03 03:46:04;;;;;;;17.98;10.20;;;8.10;99.90;;;;;;5055569;28;20484;-70
2022/03/03 03:48:30;;;;;;;15.25;8.45;;;8.00;99.90;;;;;;5055453;28;20047;-73
2022/03/03 03:50:56;;;;;;;15.25;8.27;;;8.00;99.90;;;;;;5055404;28;20045;-71
2022/03/03 03:53:22;;;;;;;16.17;8.57;;;7.90;99.90;;;;;;5055593;28;20128;-72
2022/03/03 03:55:47;;;;;;;14.23;8.23;;;7.80;99.90;;;;;;5055415;28;20033;-72
2022/03/03 03:58:13;;;;;;;14.38;8.75;;;7.80;99.90;;;;;;5055033;28;20077;-73
2022/03/03 04:00:39;;;;;;;14.77;7.22;;;7.80;99.90;;;;;;5055185;28;20077;-72
2022/03/03 04:03:05;;;;;;;14.20;8.52;;;7.80;99.90;;;;;;5054857;28;20121;-67
2022/03/03 04:05:31;;;;;;;13.65;7.93;;;7.80;99.90;;;;;;5053614;28;20543;-72
2022/03/03 04:07:56;;;;;;;17.45;8.30;;;7.80;99.90;;;;;;5054896;28;20500;-73
2022/03/03 04:10:23;;;;;;;14.50;7.10;;;7.90;99.90;;;;;;5053567;28;20045;-67
2022/03/03 04:12:49;;;;;;;13.35;7.43;;;7.90;99.90;;;;;;5053491;28;20052;-73
2022/03/03 04:15:14;;;;;;;13.05;7.13;;;8.00;99.90;;;;;;5053730;28;20037;-71
2022/03/03 04:17:40;;;;;;;13.73;7.43;;;8.10;99.90;;;;;;5071227;28;20126;-73
2022/03/03 04:20:07;;;;;;;10.57;6.88;;;8.10;99.90;;;;;;5074720;28;20032;-70
2022/03/03 04:22:34;;;;;;;13.07;7.25;;;8.10;99.90;;;;;;5074426;28;20037;-73
2022/03/03 04:25:00;;;;;;;11.32;6.53;;;8.10;99.90;;;;;;5073211;28;20047;-71
2022/03/03 04:27:26;;;;;;;16.05;9.18;;;8.20;99.90;;;;;;5073115;28;20082;-72
2022/03/03 04:29:52;;;;;;;14.57;8.52;;;8.20;99.90;;;;;;5074224;28;20040;-67
2022/03/03 04:32:18;;;;;;;27.88;13.45;;;8.20;99.90;;;;;;5074425;28;20048;-74
2022/03/03 04:34:44;;;;;;;20.70;9.73;;;8.20;99.90;;;;;;5074318;28;20152;-68
2022/03/03 04:37:10;;;;;;;27.02;12.18;;;8.20;99.90;;;;;;5074195;28;20045;-68
2022/03/03 04:39:36;;;;;;;26.15;10.65;;;8.10;99.90;;;;;;5074080;28;20035;-68
2022/03/03 04:42:03;;;;;;;18.88;9.35;;;8.00;99.90;;;;;;5074219;28;20044;-73
2022/03/03 04:44:29;;;;;;;15.63;8.98;;;8.00;99.90;;;;;;5074137;28;20036;-70
2022/03/03 04:46:54;;;;;;;16.25;9.68;;;7.90;99.90;;;;;;5072753;28;20040;-71
2022/03/03 04:49:20;;;;;;;15.45;8.98;;;7.90;99.90;;;;;;5073987;28;20125;-68
2022/03/03 04:51:46;;;;;;;20.55;10.27;;;7.80;99.90;;;;;;5073854;28;20067;-70
2022/03/03 04:54:12;;;;;;;16.30;9.63;;;7.80;99.90;;;;;;5073657;28;20045;-72
2022/03/03 04:56:39;;;;;;;16.30;9.45;;;7.80;99.90;;;;;;5089413;28;20036;-72
2022/03/03 04:59:06;;;;;;;16.77;9.30;;;7.90;99.90;;;;;;5069182;28;20109;-71
2022/03/03 05:01:32;;;;;;;18.98;8.77;;;7.90;99.90;;;;;;5060758;28;20438;-72
2022/03/03 05:03:57;;;;;;;16.70;9.27;;;7.80;99.90;;;;;;5069542;28;20082;-71
2022/03/03 05:06:23;;;;;;;17.10;9.15;;;7.80;99.90;;;;;;5053557;28;20123;-71
2022/03/03 05:08:49;;;;;;;19.60;10.80;;;7.90;99.90;;;;;;5057254;28;20041;-68
2022/03/03 05:11:15;;;;;;;18.35;10.20;;;7.90;99.90;;;;;;5073456;28;20071;-67
2022/03/03 05:13:41;;;;;;;22.98;9.73;;;7.90;99.90;;;;;;5073303;28;20561;-67
2022/03/03 05:16:07;;;;;;;19.52;10.57;;;7.80;99.90;;;;;;5073626;28;20044;-69
2022/03/03 05:18:33;;;;;;;14.65;9.52;;;7.80;99.90;;;;;;5073887;28;20669;-67
2022/03/03 05:20:59;;;;;;;21.52;9.98;;;7.80;99.90;;;;;;5073770;28;20085;-74
2022/03/03 05:23:24;;;;;;;19.20;9.40;;;7.70;99.90;;;;;;5072160;28;20069;-73
2022/03/03 05:25:50;;;;;;;20.05;10.65;;;7.80;99.90;;;;;;5072126;28;20422;-70
2022/03/03 05:28:16;;;;;;;16.00;9.73;;;7.80;99.90;;;;;;5073335;28;20448;-73
2022/03/03 05:30:42;;;;;;;18.35;9.77;;;7.80;99.90;;;;;;5073224;28;20056;-73
2022/03/03 05:33:08;;;;;;;17.27;9.65;;;7.70;99.90;;;;;;5073170;28;20063;-74
2022/03/03 05:35:34;;;;;;;17.70;9.18;;;7.70;99.90;;;;;;5073215;28;20032;-68
2022/03/03 05:38:00;;;;;;;62.70;24.42;;;7.80;99.90;;;;;;5073138;28;20044;-74
2022/03/03 05:40:26;;;;;;;47.13;18.70;;;7.90;99.90;;;;;;5072918;28;20392;-67
2022/03/03 05:42:52;;;;;;;26.45;13.23;;;7.90;99.90;;;;;;5071482;28;20491;-67
2022/03/03 05:45:18;;;;;;;22.58;11.57;;;7.80;99.90;;;;;;5072899;28;20051;-68
2022/03/03 05:47:45;;;;;;;20.65;10.90;;;7.80;99.90;;;;;;5073443;28;20029;-67
2022/03/03 05:50:11;;;;;;;23.88;10.00;;;7.80;99.90;;;;;;5073469;28;20496;-67
2022/03/03 05:52:37;;;;;;;20.60;11.07;;;7.90;99.90;;;;;;5073020;28;20044;-67
2022/03/03 05:55:04;;;;;;;24.48;10.73;;;7.90;99.90;;;;;;5072986;28;20438;-67
2022/03/03 05:57:34;;;;;;;21.35;12.32;;;8.00;99.90;;;;;;5073018;28;20148;-67
2022/03/03 06:00:13;;;;;;;15.63;10.95;;;8.00;99.90;;;;;;5072456;28;20040;-67
2022/03/03 06:02:49;;;;;;;12.77;9.40;;;8.00;99.90;;;;;;5073053;28;20062;-67
2022/03/03 06:05:19;;;;;;;19.25;9.95;;;8.00;99.90;;;;;;5071684;28;20037;-67
2022/03/03 06:07:49;;;;;;;19.77;9.63;;;8.10;99.90;;;;;;5073215;28;20550;-67
2022/03/03 06:10:20;;;;;;;14.57;8.65;;;8.00;99.90;;;;;;5073109;28;20036;-67
2022/03/03 06:12:50;;;;;;;15.43;10.30;;;8.00;99.90;;;;;;5073184;28;20063;-67
2022/03/03 06:15:16;;;;;;;17.17;9.82;;;8.00;99.90;;;;;;5073279;28;20029;-67
2022/03/03 06:17:47;;;;;;;20.33;10.10;;;8.00;99.90;;;;;;5072746;28;20507;-73
2022/03/03 06:20:13;;;;;;;15.25;9.32;;;8.00;99.90;;;;;;5073010;28;20044;-67
2022/03/03 06:22:39;;;;;;;15.77;10.18;;;8.00;99.90;;;;;;5072859;28;20040;-67
2022/03/03 06:25:05;;;;;;;18.77;9.52;;;7.90;99.90;;;;;;5072985;28;20040;-67
2022/03/03 06:27:31;;;;;;;21.85;11.48;;;7.90;99.90;;;;;;5073081;28;20487;-67
2022/03/03 06:29:57;;;;;;;17.02;11.02;;;7.90;99.90;;;;;;5073075;28;20041;-74
2022/03/03 06:32:23;;;;;;;17.40;9.77;;;7.90;99.90;;;;;;5070228;28;20105;-67
2022/03/03 06:34:49;;;;;;;18.30;10.32;;;7.80;99.90;;;;;;5071771;28;20690;-73
2022/03/03 06:37:15;;;;;;;18.33;10.68;;;7.70;99.90;;;;;;5070866;28;20495;-70
2022/03/03 06:39:41;;;;;;;16.20;9.38;;;7.70;99.90;;;;;;5075320;28;20036;-73
2022/03/03 06:42:07;;;;;;;21.80;10.82;;;7.70;99.90;;;;;;5074359;28;20158;-73
2022/03/03 06:44:33;;;;;;;19.58;10.60;;;7.80;99.90;;;;;;5074357;28;20072;-67
2022/03/03 06:47:00;;;;;;;16.85;10.18;;;7.80;99.90;;;;;;5075785;28;20045;-67
2022/03/03 06:49:26;;;;;;;18.38;9.77;;;7.80;99.90;;;;;;5075647;28;20033;-67
2022/03/03 06:51:57;;;;;;;15.45;9.15;;;7.70;99.90;;;;;;5074290;28;20070;-67
2022/03/03 06:54:24;;;;;;;16.02;9.65;;;7.70;99.90;;;;;;5075606;28;20505;-67
2022/03/03 06:56:54;;;;;;;19.48;9.38;;;7.60;99.90;;;;;;5075552;28;20480;-66
2022/03/03 06:59:26;;;;;;;13.75;9.00;;;7.60;99.90;;;;;;5075347;28;20040;-68
2022/03/03 07:01:54;;;;;;;20.05;10.38;;;7.60;99.90;;;;;;5075397;28;20048;-67
2022/03/03 07:04:20;;;;;;;12.75;8.35;;;7.70;99.90;;;;;;5075199;28;20035;-67
2022/03/03 07:06:48;;;;;;;15.48;8.70;;;7.80;99.90;;;;;;5075522;28;20068;-67
2022/03/03 07:09:14;;;;;;;16.30;8.25;;;8.00;99.90;;;;;;5072820;28;20104;-67
2022/03/03 07:11:43;;;;;;;17.30;9.10;;;8.20;99.90;;;;;;5066379;28;20081;-74
2022/03/03 07:14:09;;;;;;;16.08;8.27;;;8.40;99.90;;;;;;5063295;28;20033;-67
2022/03/03 07:17:06;;;;;;;14.10;8.70;;;8.50;99.90;;;;;;5055036;28;20041;-67
2022/03/03 07:19:48;;;;;;;16.17;8.63;;;8.60;99.90;;;;;;5053980;28;20051;-67
2022/03/03 07:22:17;;;;;;;20.20;8.95;;;8.50;99.90;;;;;;5055807;28;20051;-82
2022/03/03 07:24:51;;;;;;;16.33;9.77;;;8.50;99.90;;;;;;5055864;28;20395;-79
2022/03/03 07:27:23;;;;;;;20.02;8.93;;;8.70;99.90;;;;;;5057475;28;20046;-68
2022/03/03 07:30:21;;;;;;;14.77;8.40;;;8.90;99.90;;;;;;5062055;28;20044;-82
2022/03/03 07:33:04;;;;;;;18.70;8.13;;;9.00;99.90;;;;;;5073671;28;20048;-76
2022/03/03 07:35:33;;;;;;;12.48;7.90;;;9.00;99.90;;;;;;5071850;28;20039;-65
2022/03/03 07:38:14;;;;;;;12.52;8.75;;;9.00;99.90;;;;;;5071899;28;20127;-77
2022/03/03 07:40:42;;;;;;;19.15;12.02;;;9.10;99.90;;;;;;5073764;28;20036;-83
2022/03/03 07:43:08;;;;;;;25.23;13.80;;;9.20;99.90;;;;;;5071629;28;20068;-70
2022/03/03 07:45:34;;;;;;;20.20;12.52;;;9.10;99.90;;;;;;5072492;28;20526;-81
2022/03/03 07:48:00;;;;;;;24.92;14.10;;;9.10;99.90;;;;;;5072115;28;20052;-69
2022/03/03 07:50:27;;;;;;;27.48;14.50;;;9.10;99.90;;;;;;5070688;28;20119;-76
2022/03/03 07:52:54;;;;;;;25.15;15.38;;;9.00;99.90;;;;;;5073560;28;20102;-76
2022/03/03 07:55:21;;;;;;;24.42;14.32;;;9.00;99.90;;;;;;5052477;28;20127;-67
2022/03/03 07:58:02;;;;;;;19.10;11.52;;;9.00;99.90;;;;;;5065361;28;20048;-69
2022/03/03 08:00:34;;;;;;;16.55;10.73;;;9.00;99.90;;;;;;5071586;28;20037;-68
2022/03/03 08:03:05;;;;;;;18.67;11.38;;;9.20;99.90;;;;;;5070110;28;20044;-68
2022/03/03 08:05:31;;;;;;;25.75;15.00;;;9.20;99.90;;;;;;5071593;28;20106;-70
2022/03/03 08:08:00;;;;;;;43.05;20.17;;;9.20;99.90;;;;;;5070675;28;20036;-72
2022/03/03 08:10:28;;;;;;;27.58;15.43;;;9.20;99.90;;;;;;5071821;28;20048;-72
2022/03/03 08:12:59;;;;;;;24.05;14.45;;;9.30;99.90;;;;;;5070178;28;20079;-75
2022/03/03 08:15:25;;;;;;;19.75;11.68;;;9.50;99.90;;;;;;5067941;28;20072;-68
2022/03/03 08:17:52;;;;;;;23.48;11.70;;;9.90;99.90;;;;;;5070689;28;20048;-72
2022/03/03 08:20:20;;;;;;;17.60;10.45;;;10.00;99.90;;;;;;5069298;28;20150;-70
2022/03/03 08:22:46;;;;;;;16.58;10.90;;;10.40;99.90;;;;;;5071397;28;20686;-72
2022/03/03 08:25:13;;;;;;;19.08;10.02;;;10.90;99.90;;;;;;5067374;28;20045;-69
2022/03/03 08:27:40;;;;;;;16.30;9.98;;;11.00;99.90;;;;;;5065621;28;20071;-68
2022/03/03 08:30:08;;;;;;;15.13;7.85;;;11.10;99.90;;;;;;5064854;28;20045;-70
2022/03/03 08:32:38;;;;;;;11.40;7.50;;;11.20;99.90;;;;;;5055863;28;20573;-70
2022/03/03 08:35:18;;;;;;;13.48;8.20;;;10.80;99.90;;;;;;5064193;28;20055;-71
2022/03/03 08:38:05;;;;;;;14.82;8.75;;;11.20;99.90;;;;;;5070342;28;20101;-72
2022/03/03 08:40:32;;;;;;;14.90;7.80;;;11.20;99.90;;;;;;5065749;28;20040;-74
2022/03/03 08:43:04;;;;;;;10.10;6.55;;;11.00;99.90;;;;;;5050632;28;20047;-74
2022/03/03 08:45:33;;;;;;;13.23;7.93;;;10.80;99.90;;;;;;5051317;28;20045;-71
2022/03/03 08:48:22;;;;;;;13.80;7.53;;;10.90;99.90;;;;;;5067074;28;20043;-73
2022/03/03 08:50:51;;;;;;;12.43;7.88;;;11.20;99.90;;;;;;5050819;28;20523;-72
2022/03/03 08:53:17;;;;;;;11.15;7.20;;;11.70;99.90;;;;;;5071350;28;20400;-74
2022/03/03 08:55:43;;;;;;;12.32;7.30;;;11.70;99.90;;;;;;5070244;28;20040;-71
2022/03/03 08:58:10;;;;;;;13.57;9.68;;;11.50;99.90;;;;;;5068472;28;20028;-79
2022/03/03 09:00:37;;;;;;;10.68;7.65;;;11.40;99.90;;;;;;5061704;28;20043;-73
2022/03/03 09:03:04;;;;;;;12.30;7.65;;;11.60;99.90;;;;;;5063177;28;20043;-76
2022/03/03 09:05:30;;;;;;;12.30;8.20;;;11.40;99.90;;;;;;5070692;28;20123;-70
2022/03/03 09:07:56;;;;;;;12.20;8.52;;;11.70;99.90;;;;;;5069805;28;20135;-75
2022/03/03 09:10:22;;;;;;;16.38;9.25;;;11.90;99.90;;;;;;5069670;28;20044;-74
2022/03/03 09:12:47;;;;;;;10.32;6.75;;;11.90;99.90;;;;;;5068816;28;20053;-71
2022/03/03 09:15:15;;;;;;;14.82;10.05;;;12.20;99.90;;;;;;5070326;28;20028;-78
2022/03/03 09:17:41;;;;;;;12.88;8.88;;;12.20;99.90;;;;;;5068971;28;20526;-87
2022/03/03 09:20:12;;;;;;;12.32;8.65;;;12.20;99.90;;;;;;5069001;28;20031;-77
2022/03/03 09:22:37;;;;;;;13.63;8.00;;;12.50;99.90;;;;;;5060307;28;20139;-72
2022/03/03 09:25:04;;;;;;;11.50;7.43;;;12.80;99.90;;;;;;5053010;28;20167;-72
2022/03/03 09:27:30;;;;;;;11.00;7.20;;;13.00;99.90;;;;;;5059825;28;20079;-71
2022/03/03 09:29:56;;;;;;;9.95;6.65;;;;;;;;;;5056255;28;20094;-71
2022/03/03 09:32:22;;;;;;;13.60;6.43;;;13.10;99.90;;;;;;5056897;28;20087;-69
2022/03/03 09:34:48;;;;;;;9.70;6.20;;;13.50;99.90;;;;;;5064334;28;20071;-70
2022/03/03 09:37:15;;;;;;;10.48;6.13;;;12.80;99.90;;;;;;5052887;28;20044;-70
2022/03/03 09:39:43;;;;;;;8.27;5.65;;;12.90;99.90;;;;;;5064074;28;20373;-72
2022/03/03 09:42:09;;;;;;;9.95;5.85;;;13.30;99.90;;;;;;5060705;28;20037;-69
2022/03/03 09:44:35;;;;;;;9.50;6.20;;;13.60;99.90;;;;;;5053192;28;20051;-75
2022/03/03 09:47:02;;;;;;;8.07;5.43;;;13.60;99.90;;;;;;5064793;28;20036;-69
2022/03/03 09:49:28;;;;;;;6.40;4.50;;;13.70;99.90;;;;;;5063546;28;20045;-71
2022/03/03 09:51:54;;;;;;;8.20;4.88;;;13.10;99.90;;;;;;5061205;28;20057;-69
2022/03/03 09:54:20;;;;;;;6.57;4.78;;;13.60;99.90;;;;;;5062452;28;20110;-69
2022/03/03 09:56:45;;;;;;;10.23;5.20;;;13.30;99.90;;;;;;5070124;28;20125;-70
2022/03/03 09:59:12;;;;;;;8.85;5.63;;;13.10;99.90;;;;;;5069774;28;20171;-69
2022/03/03 10:01:38;;;;;;;9.55;5.82;;;12.90;99.90;;;;;;5070217;28;20110;-71
2022/03/03 10:04:24;;;;;;;9.13;6.28;;;12.90;99.90;;;;;;5070012;28;20530;-71
2022/03/03 10:06:51;;;;;;;22.05;10.27;;;12.80;99.90;;;;;;5070035;28;20404;-69
2022/03/03 10:09:18;;;;;;;24.23;12.38;;;12.40;99.90;;;;;;5069887;28;20221;-71
2022/03/03 10:12:05;;;;;;;19.67;11.88;;;11.70;99.90;;;;;;5068441;28;20044;-70
2022/03/03 10:14:35;;;;;;;23.02;13.15;;;11.60;99.90;;;;;;5071832;28;20500;-72
2022/03/03 10:17:02;;;;;;;21.92;12.85;;;11.30;99.90;;;;;;5073969;28;20040;-69
2022/03/03 10:19:28;;;;;;;23.92;12.57;;;11.30;99.90;;;;;;5074779;28;20457;-74
2022/03/03 10:21:54;;;;;;;21.95;13.35;;;11.30;99.90;;;;;;5074304;28;20040;-72
2022/03/03 10:24:30;;;;;;;26.38;13.65;;;11.50;99.90;;;;;;5071024;28;20411;-75
2022/03/03 10:26:58;;;;;;;26.92;14.98;;;11.30;99.90;;;;;;5069891;28;20511;-70
2022/03/03 10:29:27;;;;;;;25.85;15.88;;;11.20;99.90;;;;;;5071154;28;20065;-68
2022/03/03 10:31:54;;;;;;;26.48;17.30;;;11.00;99.90;;;;;;5074154;28;20067;-73
2022/03/03 10:34:31;;;;;;;23.95;17.17;;;10.90;99.90;;;;;;5073793;28;20511;-70
2022/03/03 10:36:59;;;;;;;27.92;16.65;;;10.80;99.90;;;;;;5074060;28;20101;-69
2022/03/03 10:39:37;;;;;;;28.38;17.50;;;10.90;99.90;;;;;;5074502;28;20123;-68
2022/03/03 10:42:15;;;;;;;31.30;17.08;;;10.80;99.90;;;;;;5073567;28;20044;-71
2022/03/03 10:44:41;;;;;;;29.65;17.80;;;10.80;99.90;;;;;;5072650;28;20044;-76
2022/03/03 10:47:18;;;;;;;42.20;24.17;;;10.70;99.90;;;;;;5073232;28;20564;-67
2022/03/03 10:49:47;;;;;;;54.85;34.30;;;10.70;99.90;;;;;;5073245;28;20122;-70
2022/03/03 10:52:24;;;;;;;41.33;27.77;;;10.80;99.90;;;;;;5072916;28;20059;-71
2022/03/03 10:54:55;;;;;;;32.97;22.85;;;10.60;99.90;;;;;;5073463;28;20539;-69
2022/03/03 10:57:45;;;;;;;29.55;20.17;;;10.50;99.90;;;;;;5073297;28;20059;-72
2022/03/03 11:00:18;;;;;;;25.57;17.03;;;10.50;99.90;;;;;;5073463;28;20438;-70
2022/03/03 11:02:50;;;;;;;26.52;15.75;;;10.40;99.90;;;;;;5073085;28;20296;-74
2022/03/03 11:05:18;;;;;;;25.88;16.17;;;10.40;99.90;;;;;;5072558;28;20116;-76
2022/03/03 11:07:46;;;;;;;30.52;17.67;;;10.40;99.90;;;;;;5073822;28;20510;-74
2022/03/03 11:10:23;;;;;;;23.05;15.43;;;10.10;99.90;;;;;;5073175;28;20066;-74
2022/03/03 11:12:49;;;;;;;60.20;30.63;;;10.10;99.90;;;;;;5072282;28;20098;-78
2022/03/03 11:15:19;;;;;;;124.75;75.65;;;10.30;99.90;;;;;;5072978;28;20044;-71
2022/03/03 11:17:45;;;;;;;117.93;64.07;;;10.30;99.90;;;;;;5070567;28;21119;-71
2022/03/03 11:20:14;;;;;;;109.30;62.67;;;10.30;99.90;;;;;;5064373;28;20036;-68
2022/03/03 11:22:41;;;;;;;119.78;66.43;;;10.20;99.90;;;;;;5059740;28;20526;-71
2022/03/03 11:25:19;;;;;;;78.80;43.35;;;10.20;99.90;;;;;;5055646;28;20488;-72
2022/03/03 11:27:46;;;;;;;106.10;56.33;;;10.10;99.90;;;;;;5052351;28;20062;-71
2022/03/03 11:30:30;;;;;;;85.63;46.40;;;10.00;99.90;;;;;;5066416;28;20044;-72
2022/03/03 11:33:30;;;;;;;62.83;35.25;;;10.00;99.90;;;;;;5060464;28;20049;-72
2022/03/03 11:36:00;;;;;;;49.28;28.65;;;10.00;99.90;;;;;;5057172;28;20079;-71
2022/03/03 11:38:43;;;;;;;33.95;19.92;;;9.80;99.90;;;;;;5066189;28;20040;-70
2022/03/03 11:41:09;;;;;;;34.38;20.33;;;9.80;99.90;;;;;;5052256;28;20032;-71
2022/03/03 11:44:01;;;;;;;24.90;17.63;;;9.80;99.90;;;;;;5056157;28;20122;-71
2022/03/03 11:46:48;;;;;;;26.42;17.48;;;9.70;99.90;;;;;;5065446;28;20078;-74
2022/03/03 11:49:24;;;;;;;28.98;17.25;;;9.70;99.90;;;;;;5065106;28;20076;-71
2022/03/03 11:51:55;;;;;;;24.42;16.70;;;9.80;99.90;;;;;;5065109;28;20044;-68
2022/03/03 11:54:26;;;;;;;30.55;18.55;;;9.80;99.90;;;;;;5068708;28;20143;-72
2022/03/03 11:57:04;;;;;;;27.23;17.15;;;9.70;99.90;;;;;;5070881;28;20044;-72
2022/03/03 11:59:34;;;;;;;32.60;18.05;;;9.70;99.90;;;;;;5067885;28;20135;-69
2022/03/03 12:02:01;;;;;;;25.95;17.33;;;9.70;99.90;;;;;;5067181;28;20075;-67
2022/03/03 12:04:27;;;;;;;24.98;16.90;;;9.60;99.90;;;;;;5072416;28;20601;-70
2022/03/03 12:06:55;;;;;;;25.85;17.58;;;9.80;99.90;;;;;;5072515;28;20052;-71
2022/03/03 12:09:30;;;;;;;28.67;17.05;;;9.80;99.90;;;;;;5071681;28;20048;-71
2022/03/03 12:12:07;;;;;;;26.80;17.05;;;9.90;99.90;;;;;;5072482;28;20083;-73
2022/03/03 12:14:50;;;;;;;31.17;18.27;;;9.90;99.90;;;;;;5070707;28;20058;-69
2022/03/03 12:17:40;;;;;;;30.77;17.00;;;9.90;99.90;;;;;;5071574;28;20045;-69
2022/03/03 12:20:27;;;;;;;27.27;16.40;;;9.90;99.90;;;;;;5072186;28;20096;-69
2022/03/03 12:23:11;;;;;;;25.58;15.77;;;10.00;99.90;;;;;;5072232;28;20043;-69
2022/03/03 12:26:00;;;;;;;25.35;15.40;;;10.00;99.90;;;;;;5064611;28;20068;-67
2022/03/03 12:28:47;;;;;;;23.92;15.45;;;10.10;99.90;;;;;;5063648;28;20040;-69
2022/03/03 12:31:20;;;;;;;27.42;15.93;;;10.10;99.90;;;;;;5065697;28;20080;-75
2022/03/03 12:33:57;;;;;;;26.20;15.00;;;10.20;99.90;;;;;;5068871;28;20056;-71
2022/03/03 12:36:24;;;;;;;23.88;15.02;;;10.30;99.90;;;;;;5055192;28;20043;-71
2022/03/03 12:38:53;;;;;;;34.10;13.32;;;10.40;99.90;;;;;;5058183;28;20098;-75
2022/03/03 12:41:21;;;;;;;26.63;13.45;;;10.30;99.90;;;;;;5070854;28;20047;-71
2022/03/03 12:43:48;;;;;;;24.77;14.32;;;10.30;99.90;;;;;;5070243;28;20522;-70
2022/03/03 12:46:14;;;;;;;19.70;13.38;;;10.40;99.90;;;;;;5070914;28;20111;-72
2022/03/03 12:48:41;;;;;;;21.67;11.57;;;10.50;99.90;;;;;;5071246;28;20488;-71